Weather observations for the past three days for
Ogden-Hinckley Airport
Metric (Imperial)
Date Time (mdt) Wind (kph) Vis. (km) Weather Sky Cond. Temperature (ºC) Relative Humidity Wind Chill (°C) Heat Index (°C) Pressure Precipitation (cm)
Air Dwpt 6 hour altimeter (cm) sea level (mb) 1 hr 3 hr 6 hr
Max. Min.
10 04:53 S 15 16.09 Fair CLR 10 -3.3 39% 8 76.58 1017.3
10 03:53 S 19 16.09 Fair CLR 11.7 -3.9 34% 76.58 1017.1
10 02:53 S 11 16.09 Fair CLR 10 -2.8 41% 9 76.56 1016.9
10 01:53 N 7 16.09 Fair CLR 15 -4.4 26% 76.53 1016.0
10 00:53 S 13 16.09 Fair CLR 12.8 -3.3 33% 76.53 1016.3
09 23:53 S 13 16.09 Fair CLR 13.9 -2.8 22.8 13.3 32% 76.48 1015.9
09 22:53 S 11 16.09 Fair CLR 15 -3.9 27% 76.48 1015.4
09 21:53 E 9 16.09 Fair CLR 16.7 -3.3 25% 76.43 1014.9
09 20:53 W 6 16.09 Fair CLR 20 -7.8 15% 76.35 1013.5
09 19:53 SW 6 16.09 Fair CLR 21.1 -7.8 14% 76.33 1013.1
09 18:53 E 6 16.09 Fair CLR 22.2 -8.9 12% 76.33 1013.3
09 17:53 NW 9 16.09 Fair CLR 22.2 -8.3 22.2 18.9 12% 76.33 1013.4
09 16:53 Vrbl 11 16.09 Fair CLR 22.2 -7.2 13% 76.38 1013.7
09 15:53 Vrbl 7 G 26 16.09 Fair CLR 21.1 -5 17% 76.43 1014.4
09 14:53 Vrbl 9 G 28 16.09 Fair CLR 20.6 -4.4 18% 76.45 1014.6
09 13:53 W 13 16.09 Fair CLR 21.1 -4.4 18% 76.45 1014.9
09 12:53 N 20 G 30 16.09 Fair CLR 20.6 -6.1 16% 76.48 1015.3
09 11:53 N 15 G 30 16.09 Fair CLR 19.4 -6.1 20 11.1 17% 76.5 1015.5
09 10:53 N 20 16.09 Fair CLR 19.4 -6.1 17% 76.5 1015.3
09 09:53 NW 13 16.09 Fair CLR 17.8 -2.8 25% 76.48 1015.2
09 08:53 NW 11 16.09 Fair CLR 16.7 -2.2 28% 76.48 1015.0
09 07:53 W 9 16.09 Fair CLR 14.4 0 38% 76.43 1014.7
09 06:53 SW 7 16.09 Fair CLR 12.2 -2.2 37% 76.4 1014.0
09 05:53 Calm 16.09 Fair CLR 12.8 -3.3 16.7 12.8 33% 76.35 1013.5
09 04:53 NW 7 16.09 Fair CLR 14.4 -3.9 28% 76.33 1013.0
09 03:53 NW 13 16.09 Fair CLR 15 -3.9 27% 76.3 1012.6
09 02:53 Calm 16.09 Fair CLR 16.1 -5.6 22% 76.28 1012.0
09 01:53 N 13 16.09 Fair CLR 15.6 -1.1 32% 76.23 1011.7
09 00:53 N 9 16.09 Fair CLR 16.1 0 34% 76.2 1011.3
08 23:53 N 11 16.09 Fair CLR 16.7 0.6 23.9 13.9 34% 76.17 1010.8
08 22:53 N 6 16.09 Fair CLR 17.8 1.1 33% 76.15 1010.4
08 21:53 NW 7 16.09 Fair CLR 19.4 0 27% 76.1 1010.0
08 20:53 SE 7 16.09 Fair CLR 20.6 -0.6 24% 76.05 1009.2
08 19:53 S 11 16.09 Fair CLR 21.1 -0.6 23% 76.02 1009.3
08 18:53 S 11 16.09 Fair CLR 23.9 -1.7 18% 24 76.05 1009.8
08 17:53 S 15 16.09 Fair CLR 23.9 -1.7 24.4 20.6 18% 24 76.1 1010.4
08 16:53 Calm 16.09 Fair CLR 23.3 -1.7 19% 76.12 1010.5
08 15:53 Vrbl 6 16.09 Fair CLR 22.8 -2.2 19% 76.17 1011.6
08 14:53 NW 7 16.09 Fair CLR 22.8 -1.1 20% 76.23 1012.1
08 13:53 W 9 16.09 Fair CLR 22.2 -1.1 21% 76.25 1012.4
08 12:53 N 7 16.09 Fair CLR 21.7 0 24% 76.28 1012.7
08 11:53 Vrbl 7 16.09 Fair CLR 20.6 1.1 20.6 9.4 27% 76.33 1013.3
08 10:53 Vrbl 7 16.09 Fair CLR 20 2.2 31% 76.33 1013.3
08 09:53 S 6 16.09 Fair CLR 17.8 2.8 37% 76.3 1013.2
08 08:53 S 11 16.09 Fair CLR 15.6 2.2 41% 76.3 1012.8
08 07:53 S 19 16.09 Fair CLR 12.2 1.7 49% 76.25 1012.6
08 06:53 S 17 16.09 Fair CLR 9.4 1.1 56% 7 76.2 1012.0
08 05:53 S 17 16.09 Fair CLR 9.4 1.7 13.3 9.4 59% 7 76.15 1011.4
08 04:53 S 20 16.09 Fair CLR 10.6 1.1 52% 76.15 1011.2
08 03:53 S 19 16.09 Fair CLR 10.6 1.7 54% 76.12 1011.0
08 02:53 S 13 16.09 Fair CLR 11.1 2.2 55% 76.12 1011.0
08 01:53 S 15 16.09 Fair CLR 11.7 2.2 52% 76.12 1010.8
08 00:53 S 13 16.09 Fair CLR 12.8 2.2 49% 76.12 1010.7
07 23:53 S 11 16.09 Fair CLR 13.3 2.8 23.3 12.8 49% 76.1 1010.5
07 22:53 S 11 16.09 Fair CLR 13.9 2.8 47% 76.07 1010.3
07 21:53 S 9 16.09 Fair CLR 16.7 2.2 38% 76.05 1009.9
07 20:53 S 7 16.09 Fair CLR 19.4 1.1 30% 76.02 1009.4
07 19:53 SW 9 16.09 Fair CLR 21.1 1.7 28% 76 1009.3
07 18:53 SW 11 16.09 Fair CLR 22.8 -0.6 21% 76.02 1009.5
07 17:53 SW 15 16.09 Fair CLR 22.8 0 23.3 20 22% 76.05 1009.8
07 16:53 S 7 16.09 Fair CLR 21.7 0 24% 76.1 1010.7
07 15:53 Vrbl 9 16.09 Fair CLR 21.1 0.6 26% 76.17 1012.0
07 14:53 W 11 16.09 Fair CLR 21.1 -1.1 23% 76.23 1012.7
07 13:53 SW 13 16.09 A Few Clouds FEW100 21.1 -2.8 20% 76.28 1013.0
07 12:53 S 15 16.09 A Few Clouds FEW110 20.6 -2.8 21% 76.28 1013.5
07 11:53 S 19 16.09 Mostly Cloudy BKN100 19.4 -3.3 19.4 8.3 21% 76.33 1014.1
07 10:53 S 28 G 43 16.09 Partly Cloudy SCT110 18.9 -3.3 22% 76.35 1014.3
07 09:53 S 17 16.09 Partly Cloudy SCT110 16.1 -1.7 30% 76.38 1014.8
07 08:53 SE 9 16.09 Partly Cloudy SCT110 12.8 -1.1 38% 76.4 1015.4
07 07:53 SE 9 16.09 Overcast OVC100 11.1 -1.7 41% 76.35 1015.0
07 06:53 SE 19 16.09 Overcast OVC100 8.9 -1.7 48% 6 76.33 1014.8
07 05:53 S 9 16.09 Mostly Cloudy BKN100 BKN120 8.9 -1.7 10 7.8 48% 8 76.38 1015.4
Date Time (mdt) Wind (kph) Vis. (km) Weather Sky Cond. Air Dwpt Max. Min. Relative Humidity Wind Chill (°C) Heat Index (°C) altimeter (cm) sea level (mb) 1 hr 3 hr 6 hr
6 hour
Temperature (ºC) Pressure Precipitation (cm)